Selinsgrove, Pennsylvania
Current Conditions -  °F | °C
As of 9:53 AM on Friday 28 Nov 2014 (Local Time) from KSEG Reporting Station
Broken Clouds Broken Clouds  
Wind Chill: -4°   Ceiling: 5000
Heat Index:   Visibility: 10mi
Dew Point: -8°   Wind: 8mph
Humidity: 56%   Direction: 320°NW
Pressure: 30.26"   Gusts: NA
Location:  40.8°N, 76.86°W
Report Text: KSEG 281453Z AUTO 32007KT 280V340 10SM FEW041 BKN050 00/M08 A3026 RMK AO2 SLP252 T00001078 53013
Loading
Personal Weather Stations






























Interactive Weather Map New forecast layout! Learn more

10-Day Weather Forecast

Advertisements
Track Severe Weather on mobile